Time;durP1;ratioP1;P1;durP2;ratioP2;P2;SDS_P1;SDS_P2;PMS_P1;PMS_P2;Temp;Humidity;BMP_temperature;BMP_pressure;BME280_temperature;BME280_humidity;BME280_pressure;Samples;Min_cycle;Max_cycle;Signal;HPM_P1;HPM_P2
2022/12/31 00:02:00;;;;;;;1999.90;999.90;;;;;;;11.74;100.00;98886.78;8276953;28;20550;-73
2022/12/31 00:06:11;;;;;;;1999.90;999.90;;;;;;;11.80;100.00;98891.03;8270136;28;20041;-74
2022/12/31 00:10:13;;;;;;;1999.90;999.90;;;;;;;11.80;100.00;98893.66;8284916;28;20117;-75
2022/12/31 00:14:14;;;;;;;1999.90;999.90;;;;;;;11.83;100.00;98900.53;8282728;28;20038;-74
2022/12/31 00:18:16;;;;;;;1999.90;999.90;;;;;;;11.86;100.00;98903.97;8266586;28;20056;-74
2022/12/31 00:22:17;;;;;;;1999.90;999.90;;;;;;;11.85;100.00;98907.47;8290349;28;20050;-74
2022/12/31 00:26:21;;;;;;;1999.90;999.90;;;;;;;11.87;100.00;98916.09;8285326;28;20037;-73
2022/12/31 00:30:22;;;;;;;1999.90;999.90;;;;;;;11.93;100.00;98928.13;8266627;28;20874;-74
2022/12/31 00:34:24;;;;;;;1999.90;999.90;;;;;;;11.95;100.00;98927.19;8660576;23;20162;-74
2022/12/31 00:38:25;;;;;;;1999.90;999.90;;;;;;;12.02;100.00;98926.19;8202499;28;20077;-73
2022/12/31 00:42:27;;;;;;;1999.90;999.90;;;;;;;12.02;100.00;98925.34;8222414;28;20046;-74
2022/12/31 00:46:28;;;;;;;1999.90;999.90;;;;;;;12.10;100.00;98939.09;8197753;28;20395;-76
2022/12/31 00:50:30;;;;;;;1999.90;999.90;;;;;;;12.10;100.00;98950.34;8208699;28;20049;-73
2022/12/31 00:54:31;;;;;;;1999.90;999.90;;;;;;;12.15;100.00;98946.81;8214758;28;20042;-75
2022/12/31 00:58:34;;;;;;;1999.90;999.90;;;;;;;12.14;100.00;98942.50;8208942;28;20141;-74
2022/12/31 01:02:35;;;;;;;;;;;;;;;12.20;100.00;98953.63;8216199;28;20395;-73
2022/12/31 01:06:37;;;;;;;1999.90;999.90;;;;;;;12.20;100.00;98947.56;8226309;28;20040;-74
2022/12/31 01:14:59;;;;;;;1999.90;999.90;;;;;;;12.24;100.00;98959.66;8227475;28;20539;-74
2022/12/31 01:19:03;;;;;;;1999.90;999.90;;;;;;;12.20;100.00;98968.41;8211665;28;20161;-74
2022/12/31 01:23:06;;;;;;;1999.90;999.90;;;;;;;12.16;100.00;98977.16;8233790;28;20049;-74
2022/12/31 01:27:07;;;;;;;;;;;;;;;12.17;100.00;98987.53;8217549;28;20053;-74
2022/12/31 01:31:12;;;;;;;1999.90;999.90;;;;;;;12.17;100.00;98991.88;8216757;28;19944;-76
2022/12/31 01:35:14;;;;;;;1999.90;999.90;;;;;;;12.18;100.00;98985.78;8220864;28;21270;-74
2022/12/31 01:39:15;;;;;;;1999.90;999.90;;;;;;;12.19;100.00;99000.53;8232702;28;20054;-75
2022/12/31 01:43:19;;;;;;;1999.90;999.90;;;;;;;12.16;100.00;99009.25;8225007;28;20043;-73
2022/12/31 01:47:35;;;;;;;1999.90;999.90;;;;;;;12.13;100.00;98996.28;8219533;28;20056;-75
2022/12/31 01:51:38;;;;;;;1999.90;999.90;;;;;;;12.11;100.00;99005.88;8218087;28;20053;-75
2022/12/31 01:55:53;;;;;;;1999.90;999.90;;;;;;;12.05;100.00;99017.25;8217458;28;20043;-74
2022/12/31 01:59:55;;;;;;;1999.90;999.90;;;;;;;12.04;100.00;99010.31;8216379;28;20161;-73
2022/12/31 02:04:00;;;;;;;1999.90;999.90;;;;;;;12.02;100.00;99006.88;8205384;28;20047;-73
2022/12/31 02:08:04;;;;;;;1999.90;999.90;;;;;;;12.04;100.00;99012.06;8217762;28;20126;-75
2022/12/31 02:12:08;;;;;;;1999.90;999.90;;;;;;;12.06;100.00;99018.09;8219020;28;20483;-74
2022/12/31 02:16:20;;;;;;;1999.90;999.90;;;;;;;12.03;100.00;99019.03;8207837;28;20081;-76
2022/12/31 02:21:00;;;;;;;1999.90;999.90;;;;;;;12.05;100.00;99013.78;8215033;28;20057;-75
2022/12/31 02:25:28;;;;;;;1999.90;999.90;;;;;;;12.04;100.00;99010.31;8141019;28;20047;-74
2022/12/31 02:29:53;;;;;;;1999.90;999.90;;;;;;;12.04;100.00;99025.94;8218148;28;20047;-76
2022/12/31 02:34:24;;;;;;;1999.90;999.90;;;;;;;12.06;100.00;99007.69;8207556;28;20542;-74
2022/12/31 02:38:32;;;;;;;1999.90;999.90;;;;;;;12.04;100.00;99023.34;8219961;28;20054;-74
2022/12/31 02:42:34;;;;;;;1999.90;999.90;;;;;;;12.10;100.00;99012.81;8209050;28;20046;-75
2022/12/31 02:46:46;;;;;;;1999.90;999.90;;;;;;;12.08;100.00;99006.78;8204375;28;20064;-74
2022/12/31 02:50:59;;;;;;;1999.90;999.90;;;;;;;12.12;100.00;99020.59;8224518;28;20116;-75
2022/12/31 02:55:06;;;;;;;1999.90;999.90;;;;;;;12.17;100.00;99013.56;8205832;28;20042;-74
2022/12/31 03:03:42;;;;;;;1999.90;999.90;;;;;;;12.23;100.00;99025.63;8220031;28;20205;-76
2022/12/31 03:07:44;;;;;;;1999.90;999.90;;;;;;;12.27;100.00;99017.75;8216887;28;20088;-75
2022/12/31 03:16:05;;;;;;;1999.90;999.90;;;;;;;12.31;100.00;99011.59;8198585;28;20137;-76
2022/12/31 03:28:48;;;;;;;1999.90;999.90;;;;;;;12.49;100.00;99023.41;8200512;28;20043;-75
2022/12/31 03:32:50;;;;;;;1999.90;999.90;;;;;;;12.54;100.00;99055.44;8214460;28;20059;-75
2022/12/31 03:36:51;;;;;;;1999.90;999.90;;;;;;;12.57;100.00;99051.94;8223452;28;20058;-75
2022/12/31 03:40:53;;;;;;;1999.90;999.90;;;;;;;12.56;100.00;99043.25;8196485;28;20722;-75
2022/12/31 03:44:54;;;;;;;1999.90;999.90;;;;;;;12.55;100.00;99044.13;8210507;28;20077;-75
2022/12/31 03:48:55;;;;;;;1999.90;999.90;;;;;;;12.54;100.00;99041.56;8211199;28;20059;-75
2022/12/31 03:52:57;;;;;;;1999.90;999.90;;;;;;;12.63;100.00;99038.81;8203416;28;20051;-75
2022/12/31 03:56:58;;;;;;;1999.90;999.90;;;;;;;12.67;100.00;99043.91;8203822;28;20459;-76
2022/12/31 04:01:00;;;;;;;1999.90;999.90;;;;;;;12.75;100.00;99046.41;8205148;28;20130;-75
2022/12/31 04:05:03;;;;;;;1999.90;999.90;;;;;;;12.86;100.00;99047.03;8181412;28;20042;-75
2022/12/31 04:09:04;;;;;;;1999.90;999.90;;;;;;;12.93;100.00;99072.09;8220487;28;20059;-74
2022/12/31 04:13:05;;;;;;;1999.90;999.90;;;;;;;12.93;100.00;99056.47;8221720;28;20065;-74
2022/12/31 04:17:07;;;;;;;1999.90;999.90;;;;;;;12.99;100.00;99045.91;8216499;28;20457;-75
2022/12/31 04:21:08;;;;;;;1999.90;999.90;;;;;;;13.00;100.00;99058.06;8209125;28;20042;-75
2022/12/31 04:25:11;;;;;;;1999.90;999.90;;;;;;;13.08;100.00;99057.91;8210464;28;20058;-75
2022/12/31 04:29:13;;;;;;;1999.90;999.90;;;;;;;13.19;100.00;99069.00;8221913;28;20050;-75
2022/12/31 04:33:14;;;;;;;1999.90;999.90;;;;;;;13.26;99.78;99062.78;8207253;28;20043;-74
2022/12/31 04:37:15;;;;;;;1999.90;999.90;;;;;;;13.25;100.00;99058.44;8198491;28;20564;-75
2022/12/31 04:41:17;;;;;;;1999.90;999.90;;;;;;;13.30;99.35;99080.09;8217671;28;20078;-75
2022/12/31 04:45:18;;;;;;;1999.90;999.90;;;;;;;13.28;99.77;99065.34;8205084;28;20046;-75
2022/12/31 04:49:20;;;;;;;1999.90;999.90;;;;;;;13.35;99.17;99084.34;8210860;28;20054;-76
2022/12/31 04:53:23;;;;;;;1999.90;999.90;;;;;;;13.34;99.03;99085.25;8209832;28;20049;-75
2022/12/31 04:57:24;;;;;;;1999.90;999.90;;;;;;;13.35;99.16;99095.63;8190271;28;20039;-75
2022/12/31 05:01:26;;;;;;;1999.90;999.90;;;;;;;13.43;97.76;99088.50;8217926;28;20069;-75
2022/12/31 05:05:27;;;;;;;1999.90;999.90;;;;;;;13.44;98.19;99085.00;8220810;28;20043;-75
2022/12/31 05:09:29;;;;;;;1999.90;999.90;;;;;;;13.47;97.63;99077.13;8204305;28;20538;-75
2022/12/31 05:13:31;;;;;;;;;;;;;;;13.50;97.55;99079.69;8206647;28;20146;-76
2022/12/31 05:17:34;;;;;;;1999.90;999.90;;;;;;;13.47;97.52;99076.28;8193373;28;19997;-76
2022/12/31 05:21:35;;;;;;;1999.90;999.90;;;;;;;13.46;97.11;99072.78;8229471;28;20748;-76
2022/12/31 05:25:37;;;;;;;1999.90;999.90;;;;;;;13.47;96.94;99078.88;8228879;28;20038;-76
2022/12/31 05:29:38;;;;;;;1999.90;999.90;;;;;;;13.47;96.85;99073.69;8213805;28;21286;-76
2022/12/31 05:33:40;;;;;;;1999.90;999.90;;;;;;;13.44;97.47;99081.53;8201943;28;20062;-76
2022/12/31 05:37:41;;;;;;;1999.90;999.90;;;;;;;13.47;96.96;99074.53;8209484;28;20052;-76
2022/12/31 05:41:43;;;;;;;1999.90;999.90;;;;;;;13.49;97.09;99077.97;8208251;28;20046;-76
2022/12/31 05:45:44;;;;;;;1999.90;999.90;;;;;;;13.50;96.64;99068.38;8210738;28;20054;-77
2022/12/31 05:49:45;;;;;;;1999.90;999.90;;;;;;;13.54;96.26;99070.03;8190883;28;20085;-76
2022/12/31 05:53:47;;;;;;;1999.90;999.90;;;;;;;13.54;95.74;99077.84;8221244;28;20058;-76
2022/12/31 05:57:48;;;;;;;1999.90;999.90;;;;;;;13.56;95.40;99073.47;8229197;28;20498;-76
2022/12/31 06:01:50;;;;;;;1999.90;999.90;;;;;;;13.55;95.39;99084.78;8202644;28;20706;-76
2022/12/31 06:05:51;;;;;;;1999.90;999.90;;;;;;;13.54;95.53;99083.06;8225144;28;20057;-76
2022/12/31 06:09:52;;;;;;;1999.90;999.90;;;;;;;13.52;94.97;99092.69;8210965;28;20043;-76
2022/12/31 06:13:54;;;;;;;1999.90;999.90;;;;;;;13.50;94.76;99090.09;8211003;28;20590;-76
2022/12/31 06:17:55;;;;;;;1999.90;999.90;;;;;;;13.43;94.00;99098.94;8215125;28;20528;-76
2022/12/31 06:21:57;;;;;;;1999.90;999.90;;;;;;;13.39;93.79;99101.66;8231371;28;20057;-76
2022/12/31 06:26:03;;;;;;;1999.90;999.90;;;;;;;13.35;93.23;99100.00;8227977;28;20038;-76
2022/12/31 06:30:05;;;;;;;1999.90;999.90;;;;;;;13.29;93.53;99111.41;8190520;28;20050;-76
2022/12/31 06:34:06;;;;;;;1999.90;999.90;;;;;;;13.25;93.25;99105.38;8224480;28;20157;-76
2022/12/31 06:38:08;;;;;;;1999.90;999.90;;;;;;;13.23;93.37;99106.31;8210874;28;20189;-76
2022/12/31 06:42:09;;;;;;;1999.90;999.90;;;;;;;13.16;93.41;99105.53;8222587;28;20070;-76
2022/12/31 06:46:14;;;;;;;1999.90;999.90;;;;;;;13.15;93.32;99111.66;8216612;28;20075;-75
2022/12/31 06:50:16;;;;;;;1999.90;999.90;;;;;;;13.11;93.53;99116.97;8220530;28;20051;-76
2022/12/31 06:54:17;;;;;;;1999.90;999.90;;;;;;;13.11;93.17;99120.44;8220185;28;20064;-76
2022/12/31 06:58:19;;;;;;;1999.90;999.90;;;;;;;13.05;93.04;99112.69;8223400;28;20077;-76
2022/12/31 07:02:42;;;;;;;1999.90;999.90;;;;;;;13.02;93.25;99118.84;8185869;28;20405;-76
2022/12/31 07:07:07;;;;;;;1999.90;999.90;;;;;;;13.02;93.19;99117.97;8215366;28;20062;-76
2022/12/31 07:11:22;;;;;;;1999.90;999.90;;;;;;;12.97;93.11;99122.41;8204466;28;20133;-76
2022/12/31 07:15:39;;;;;;;1999.90;999.90;;;;;;;12.96;92.96;99137.19;8211940;28;20053;-76
2022/12/31 07:20:04;;;;;;;1999.90;999.90;;;;;;;12.97;92.54;99130.25;8199381;28;20112;-76
2022/12/31 07:24:07;;;;;;;1999.90;999.90;;;;;;;12.99;92.32;99138.88;8206905;28;20142;-76
2022/12/31 07:28:18;;;;;;;1999.90;999.90;;;;;;;13.00;91.89;99140.59;8204519;28;20588;-75
2022/12/31 07:32:44;;;;;;;1999.90;999.90;;;;;;;13.02;91.78;99146.66;8184991;28;20046;-76
2022/12/31 07:36:51;;;;;;;1999.90;999.90;;;;;;;13.06;91.38;99155.25;8222529;28;20058;-77
2022/12/31 07:41:15;;;;;;;1999.90;999.90;;;;;;;13.05;91.59;99170.03;8189324;28;20614;-76
2022/12/31 07:45:30;;;;;;;1999.90;999.90;;;;;;;13.11;90.51;99167.34;8203557;28;21302;-76
2022/12/31 07:49:32;;;;;;;1999.90;999.90;;;;;;;13.13;90.42;99164.72;8227949;28;20053;-75
2022/12/31 07:53:34;;;;;;;1999.90;999.90;;;;;;;13.13;90.37;99169.94;8228034;28;20069;-75
2022/12/31 07:57:46;;;;;;;1999.90;999.90;;;;;;;13.13;90.33;99182.97;8208177;28;20492;-76
2022/12/31 08:01:55;;;;;;;1999.90;999.90;;;;;;;13.13;90.30;99186.41;8218011;28;20054;-76
2022/12/31 08:06:22;;;;;;;1999.90;999.90;;;;;;;13.17;90.02;99180.25;8216639;28;20043;-78
2022/12/31 08:10:37;;;;;;;1999.90;999.90;;;;;;;13.13;89.49;99185.56;8227582;28;20049;-77
2022/12/31 08:14:43;;;;;;;1999.90;999.90;;;;;;;13.16;88.92;99203.75;8213185;28;20051;-75
2022/12/31 08:18:44;;;;;;;1999.90;999.90;;;;;;;13.16;88.99;99188.97;8206194;28;20058;-76
2022/12/31 08:23:03;;;;;;;1999.90;999.90;;;;;;;13.21;89.44;99194.97;8227362;28;20434;-76
2022/12/31 08:27:16;;;;;;;1999.90;999.90;;;;;;;13.24;88.90;99197.53;8227015;28;20137;-77
2022/12/31 08:31:23;;;;;;;1999.90;999.90;;;;;;;13.25;88.36;99194.03;8202220;28;20073;-76
2022/12/31 08:35:49;;;;;;;1999.90;999.90;;;;;;;13.34;88.14;99208.66;8227676;28;20058;-76
2022/12/31 08:40:06;;;;;;;1999.90;999.90;;;;;;;13.45;86.43;99217.13;8234252;28;20056;-76
2022/12/31 08:44:38;;;;;;;1999.90;999.90;;;;;;;13.65;85.85;99213.31;8211837;28;20460;-76
2022/12/31 08:48:42;;;;;;;1999.90;999.90;;;;;;;13.84;85.24;99206.81;8220897;28;20526;-76
2022/12/31 08:52:44;;;;;;;1999.90;999.90;;;;;;;13.89;83.89;99221.50;8216337;28;20145;-76
2022/12/31 08:57:09;;;;;;;1999.90;999.90;;;;;;;13.88;83.78;99217.16;8229701;28;20492;-76
2022/12/31 09:01:12;;;;;;;1999.90;999.90;;;;;;;13.97;83.90;99216.09;8208946;28;20134;-78
2022/12/31 09:05:33;;;;;;;1999.90;999.90;;;;;;;14.12;83.28;99213.16;8212850;28;20133;-77
2022/12/31 09:09:49;;;;;;;1999.90;999.90;;;;;;;14.36;81.59;99217.00;8226183;28;20113;-77
2022/12/31 09:14:24;;;;;;;1999.90;999.90;;;;;;;14.57;80.23;99215.69;8212687;28;20038;-76
2022/12/31 09:18:26;;;;;;;1999.90;999.90;;;;;;;14.61;79.30;99213.84;8228776;28;20058;-77
2022/12/31 09:22:33;;;;;;;1999.90;999.90;;;;;;;14.70;78.92;99217.09;8213753;28;20102;-77
2022/12/31 09:27:04;;;;;;;1999.90;999.90;;;;;;;14.81;78.43;99209.84;8226961;28;20046;-77
2022/12/31 09:31:17;;;;;;;1999.90;999.90;;;;;;;14.81;77.91;99222.06;8215480;28;20050;-77
2022/12/31 09:35:25;;;;;;;;;;;;;;;14.99;77.85;99212.91;8214602;28;20149;-77
2022/12/31 09:39:44;;;;;;;1999.90;999.90;;;;;;;15.01;77.02;99219.81;8223884;28;19936;-77
2022/12/31 09:44:23;;;;;;;1999.90;999.90;;;;;;;15.01;77.32;99214.59;8187382;28;20552;-77
2022/12/31 09:48:56;;;;;;;1999.90;999.90;;;;;;;15.06;76.90;99220.56;8197457;28;20553;-77
2022/12/31 09:53:16;;;;;;;1999.90;999.90;;;;;;;14.96;76.47;99216.47;8223751;28;20085;-77
2022/12/31 09:57:35;;;;;;;1999.90;999.90;;;;;;;14.96;76.14;99213.84;8219358;28;20378;-77
2022/12/31 10:01:56;;;;;;;1999.90;999.90;;;;;;;14.89;77.09;99220.13;8226829;28;20476;-77
2022/12/31 10:06:10;;;;;;;1999.90;999.90;;;;;;;14.72;76.80;99232.72;8211981;28;20054;-78
2022/12/31 10:10:22;;;;;;;1999.90;999.90;;;;;;;14.65;77.84;99231.16;8224232;28;20047;-77
2022/12/31 10:14:32;;;;;;;1999.90;999.90;;;;;;;14.57;77.50;99231.38;8234211;28;20162;-77
2022/12/31 10:19:08;;;;;;;1999.90;999.90;;;;;;;14.49;78.19;99234.13;8208062;28;20055;-77
2022/12/31 10:23:19;;;;;;;1999.90;999.90;;;;;;;14.42;78.50;99231.69;8228368;28;20043;-77
2022/12/31 10:27:37;;;;;;;1999.90;999.90;;;;;;;14.41;78.88;99225.59;8235626;28;20042;-77
2022/12/31 10:31:56;;;;;;;1999.90;999.90;;;;;;;14.39;78.28;99226.53;8208190;28;20073;-77
2022/12/31 10:36:17;;;;;;;1999.90;999.90;;;;;;;14.33;78.61;99224.03;8209679;28;20181;-77
2022/12/31 10:40:44;;;;;;;1999.90;999.90;;;;;;;14.35;79.22;99230.94;8208949;28;20054;-77
2022/12/31 10:45:19;;;;;;;1999.90;999.90;;;;;;;14.42;78.45;99219.47;8214698;28;20137;-77
2022/12/31 10:49:39;;;;;;;1999.90;999.90;;;;;;;14.55;78.18;99208.78;8207555;28;20051;-77
2022/12/31 10:54:02;;;;;;;1999.90;999.90;;;;;;;14.70;76.54;99211.88;8232952;28;20042;-77
2022/12/31 10:58:31;;;;;;;1999.90;999.90;;;;;;;14.89;77.50;99198.34;8227146;28;20070;-77
2022/12/31 11:02:39;;;;;;;1999.90;999.90;;;;;;;15.07;75.57;99190.88;8205189;28;20063;-77
2022/12/31 11:07:04;;;;;;;1999.90;999.90;;;;;;;15.16;75.22;99175.88;8208499;28;20097;-78
2022/12/31 11:11:16;;;;;;;1999.90;999.90;;;;;;;15.23;74.93;99175.66;8209963;28;20051;-78
2022/12/31 11:15:21;;;;;;;1999.90;999.90;;;;;;;15.22;74.87;99187.03;8226733;28;20050;-78
2022/12/31 11:20:10;;;;;;;1999.90;999.90;;;;;;;15.26;74.50;99177.34;8240824;28;20054;-77
2022/12/31 11:24:31;;;;;;;1999.90;999.90;;;;;;;15.30;74.10;99182.47;8234241;28;20463;-78
2022/12/31 11:28:44;;;;;;;1999.90;999.90;;;;;;;15.35;73.35;99184.94;8237459;28;20046;-78
2022/12/31 11:33:05;;;;;;;;;;;;;;;15.35;73.48;99192.78;8213298;28;20061;-78
2022/12/31 11:37:20;;;;;;;1999.90;999.90;;;;;;;15.35;72.84;99205.88;8215423;28;19926;-78
2022/12/31 11:41:48;;;;;;;1999.90;999.90;;;;;;;15.32;72.67;99209.44;8214870;28;20061;-78
2022/12/31 11:45:52;;;;;;;1999.90;999.90;;;;;;;15.37;72.18;99217.16;8210883;28;20058;-78
2022/12/31 11:50:14;;;;;;;1999.90;999.90;;;;;;;15.42;72.55;99213.50;8215515;28;21042;-77
2022/12/31 11:54:44;;;;;;;1999.90;999.90;;;;;;;15.43;71.48;99224.84;8232043;28;20117;-78
2022/12/31 11:58:54;;;;;;;1999.90;999.90;;;;;;;15.37;71.44;99225.00;8215229;28;20058;-77
2022/12/31 12:03:00;;;;;;;1999.90;999.90;;;;;;;15.35;71.84;99224.19;8206486;28;20162;-78
2022/12/31 12:07:01;;;;;;;1999.90;999.90;;;;;;;15.33;71.27;99224.22;8236603;28;20467;-77
2022/12/31 12:11:06;;;;;;;1999.90;999.90;;;;;;;15.30;72.03;99211.25;8213559;28;20050;-77
2022/12/31 12:15:15;;;;;;;1999.90;999.90;;;;;;;15.33;71.19;99216.38;8206449;28;20577;-77
2022/12/31 12:19:17;;;;;;;1999.90;999.90;;;;;;;15.39;71.70;99226.69;8232991;28;20149;-77
2022/12/31 12:23:24;;;;;;;1999.90;999.90;;;;;;;15.41;71.16;99216.16;8224031;28;20072;-78
2022/12/31 12:27:28;;;;;;;1999.90;999.90;;;;;;;15.38;71.22;99211.88;8225872;28;20042;-78
2022/12/31 12:31:32;;;;;;;1999.90;999.90;;;;;;;15.45;70.75;99196.91;8215576;28;20746;-78
2022/12/31 12:35:34;;;;;;;1999.90;999.90;;;;;;;15.46;70.85;99180.28;8220515;28;20500;-78
2022/12/31 12:39:36;;;;;;;1999.90;999.90;;;;;;;15.42;70.16;99194.34;8216721;28;20848;-78
2022/12/31 12:43:37;;;;;;;1999.90;999.90;;;;;;;15.36;70.71;99192.75;8212304;28;20051;-78
2022/12/31 12:47:41;;;;;;;1999.90;999.90;;;;;;;15.32;71.01;99187.66;8190652;28;20057;-78
2022/12/31 12:52:02;;;;;;;1999.90;999.90;;;;;;;15.36;71.63;99181.44;8201777;28;20074;-78
2022/12/31 12:56:26;;;;;;;1999.90;999.90;;;;;;;15.42;70.83;99183.88;8227669;28;20058;-78
2022/12/31 13:00:54;;;;;;;1999.90;999.90;;;;;;;15.37;70.72;99191.84;8203618;28;20121;-78
2022/12/31 13:05:10;;;;;;;1999.90;999.90;;;;;;;15.32;70.69;99183.28;8216407;28;20093;-78
2022/12/31 13:09:29;;;;;;;1999.90;999.90;;;;;;;15.33;71.06;99182.38;8232302;28;20048;-78
2022/12/31 13:13:52;;;;;;;1999.90;999.90;;;;;;;15.31;70.93;99168.47;8214429;28;20048;-78
2022/12/31 13:18:11;;;;;;;1999.90;999.90;;;;;;;15.35;70.78;99156.16;8200316;28;20078;-78
2022/12/31 13:22:17;;;;;;;1999.90;999.90;;;;;;;15.35;70.60;99156.16;8213185;28;20101;-78
2022/12/31 13:26:30;;;;;;;1999.90;999.90;;;;;;;15.36;69.85;99155.25;8193474;28;20070;-78
2022/12/31 13:30:57;;;;;;;1999.90;999.90;;;;;;;15.44;69.95;99158.53;8217896;28;20050;-78
2022/12/31 13:35:22;;;;;;;1999.90;999.90;;;;;;;15.43;69.75;99160.28;8197449;28;20102;-78
2022/12/31 13:39:30;;;;;;;1999.90;999.90;;;;;;;15.46;69.17;99159.34;8207755;28;20039;-78
2022/12/31 13:43:53;;;;;;;1999.90;999.90;;;;;;;15.47;69.19;99158.44;8219985;28;20141;-78
2022/12/31 13:48:00;;;;;;;1999.90;999.90;;;;;;;15.46;69.96;99164.59;8180665;28;20047;-78
2022/12/31 13:52:28;;;;;;;1999.90;999.90;;;;;;;15.42;69.54;99165.56;8220109;28;20059;-78
2022/12/31 13:56:35;;;;;;;1999.90;999.90;;;;;;;15.36;69.61;99150.03;8207321;28;20070;-78
2022/12/31 14:01:05;;;;;;;1999.90;999.90;;;;;;;15.30;69.82;99156.31;8192258;28;20074;-78
2022/12/31 14:05:10;;;;;;;1999.90;999.90;;;;;;;15.21;70.06;99159.16;8197504;28;20041;-77
2022/12/31 14:09:22;;;;;;;1999.90;999.90;;;;;;;15.14;70.47;99172.44;8198415;28;20161;-77
2022/12/31 14:13:39;;;;;;;1999.90;999.90;;;;;;;15.04;69.94;99164.81;8221846;28;20129;-77
2022/12/31 14:17:56;;;;;;;1999.90;999.90;;;;;;;15.00;70.78;99159.72;8224705;28;20049;-78
2022/12/31 14:22:08;;;;;;;1999.90;999.90;;;;;;;14.87;70.76;99148.72;8223641;28;20145;-78
2022/12/31 14:26:26;;;;;;;1999.90;999.90;;;;;;;14.79;70.59;99148.91;8202810;28;20046;-77
2022/12/31 14:30:33;;;;;;;1999.90;999.90;;;;;;;14.77;70.99;99157.72;8199763;28;20071;-78
2022/12/31 14:35:00;;;;;;;1999.90;999.90;;;;;;;14.73;70.65;99169.13;8210647;28;20055;-78
2022/12/31 14:39:29;;;;;;;1999.90;999.90;;;;;;;14.72;71.13;99170.91;8233085;28;20043;-79
2022/12/31 14:43:49;;;;;;;1999.90;999.90;;;;;;;14.66;71.01;99165.81;8212083;28;20063;-79
2022/12/31 14:47:57;;;;;;;1999.90;999.90;;;;;;;14.66;71.74;99167.56;8215023;28;20047;-78
2022/12/31 14:52:20;;;;;;;1999.90;999.90;;;;;;;14.65;70.91;99173.69;8201401;28;20125;-78
2022/12/31 14:56:39;;;;;;;1999.90;999.90;;;;;;;14.62;70.31;99173.75;8225416;28;20043;-79
2022/12/31 15:00:55;;;;;;;1999.90;999.90;;;;;;;14.58;71.05;99182.56;8214216;28;21472;-79
2022/12/31 15:05:08;;;;;;;1999.90;999.90;;;;;;;14.50;71.13;99180.13;8221751;28;20345;-78
2022/12/31 15:09:39;;;;;;;1999.90;999.90;;;;;;;14.45;70.88;99172.41;8211767;28;20069;-78
2022/12/31 15:14:05;;;;;;;1999.90;999.90;;;;;;;14.39;71.14;99171.66;8205907;28;20055;-78
2022/12/31 15:18:44;;;;;;;1999.90;999.90;;;;;;;14.38;70.32;99183.00;8210428;28;20158;-78
2022/12/31 15:22:48;;;;;;;1999.90;999.90;;;;;;;14.31;70.97;99182.28;8226552;28;20467;-78
2022/12/31 15:27:03;;;;;;;1999.90;999.90;;;;;;;14.26;71.31;99188.50;8202500;28;20051;-78
2022/12/31 15:31:17;;;;;;;1999.90;999.90;;;;;;;14.23;71.20;99186.81;8218701;28;20134;-79
2022/12/31 15:35:20;;;;;;;1999.90;999.90;;;;;;;14.13;71.48;99196.59;8220861;28;20058;-78
2022/12/31 15:39:39;;;;;;;1999.90;999.90;;;;;;;14.03;71.48;99186.41;8222034;28;20872;-79
2022/12/31 15:44:22;;;;;;;1999.90;999.90;;;;;;;13.99;71.76;99190.81;8206531;28;20108;-79
2022/12/31 15:48:40;;;;;;;1999.90;999.90;;;;;;;13.95;71.81;99188.31;8208531;28;20046;-78
2022/12/31 15:52:47;;;;;;;1999.90;999.90;;;;;;;13.95;71.57;99193.53;8207048;28;20050;-77
2022/12/31 15:56:51;;;;;;;1999.90;999.90;;;;;;;13.89;72.03;99202.38;8225012;28;20133;-78
2022/12/31 16:01:10;;;;;;;1999.90;999.90;;;;;;;13.93;71.39;99206.63;8210333;28;20051;-78
2022/12/31 16:05:18;;;;;;;1999.90;999.90;;;;;;;13.85;72.01;99212.00;8230427;28;20361;-78
2022/12/31 16:09:25;;;;;;;1999.90;999.90;;;;;;;13.83;71.96;99207.72;8233869;28;20042;-78
2022/12/31 16:13:29;;;;;;;1999.90;999.90;;;;;;;13.85;71.41;99209.41;8228747;28;20082;-79
2022/12/31 16:17:32;;;;;;;1999.90;999.90;;;;;;;13.81;71.72;99210.31;8213603;28;20077;-78
2022/12/31 16:21:37;;;;;;;1999.90;999.90;;;;;;;13.81;71.00;99212.94;8209620;28;20039;-78
2022/12/31 16:25:43;;;;;;;1999.90;999.90;;;;;;;13.79;71.19;99212.13;8194822;28;20693;-79
2022/12/31 16:29:51;;;;;;;1999.90;999.90;;;;;;;13.73;71.33;99211.38;8200983;28;20129;-79
2022/12/31 16:34:12;;;;;;;1999.90;999.90;;;;;;;13.69;71.40;99221.03;8208635;28;20050;-79
2022/12/31 16:38:17;;;;;;;1999.90;999.90;;;;;;;13.65;71.43;99224.59;8210111;28;20031;-79
2022/12/31 16:42:20;;;;;;;1999.90;999.90;;;;;;;13.62;70.80;99229.84;8232313;28;20142;-78
2022/12/31 16:46:27;;;;;;;1999.90;999.90;;;;;;;13.60;70.53;99232.50;8234668;28;20046;-79
2022/12/31 16:50:29;;;;;;;1999.90;999.90;;;;;;;13.60;70.01;99232.50;8221421;28;20046;-79
2022/12/31 16:54:44;;;;;;;1999.90;999.90;;;;;;;13.61;69.82;99225.53;8229843;28;20050;-78
2022/12/31 16:58:46;;;;;;;1999.90;999.90;;;;;;;13.64;69.72;99228.06;8206694;28;20046;-78
2022/12/31 17:02:59;;;;;;;1999.90;999.90;;;;;;;13.63;69.66;99228.97;8199164;28;20051;-78
2022/12/31 17:07:24;;;;;;;1999.90;999.90;;;;;;;13.62;69.75;99232.47;8224520;28;20367;-79
2022/12/31 17:11:47;;;;;;;1999.90;999.90;;;;;;;13.59;70.25;99224.69;8230344;28;20050;-78
2022/12/31 17:15:48;;;;;;;;;;;;;;;13.55;70.75;99229.13;8199082;28;20038;-78
2022/12/31 17:19:56;;;;;;;1999.90;999.90;;;;;;;13.56;70.23;99225.63;8217320;28;19937;-79
2022/12/31 17:24:04;;;;;;;1999.90;999.90;;;;;;;13.52;71.17;99229.19;8209347;28;20048;-78
2022/12/31 17:28:20;;;;;;;1999.90;999.90;;;;;;;13.52;70.34;99220.50;8221887;28;20450;-78
2022/12/31 17:32:35;;;;;;;1999.90;999.90;;;;;;;13.50;70.97;99230.09;8224244;28;20201;-78
2022/12/31 17:36:38;;;;;;;1999.90;999.90;;;;;;;13.53;71.11;99230.91;8190423;28;20054;-78
2022/12/31 17:40:40;;;;;;;1999.90;999.90;;;;;;;13.49;71.17;99244.91;8193478;28;20078;-78
2022/12/31 17:44:56;;;;;;;1999.90;999.90;;;;;;;13.53;71.17;99232.66;8222400;28;20058;-77
2022/12/31 17:49:01;;;;;;;1999.90;999.90;;;;;;;13.46;72.01;99238.84;8208901;28;20292;-77
2022/12/31 17:53:11;;;;;;;1999.90;999.90;;;;;;;13.45;71.29;99243.22;8213293;28;20055;-78
2022/12/31 17:57:26;;;;;;;1999.90;999.90;;;;;;;13.56;70.14;99246.50;8215332;28;20073;-78
2022/12/31 18:01:28;;;;;;;1999.90;999.90;;;;;;;13.60;70.24;99253.38;8214667;28;20065;-78
2022/12/31 18:05:29;;;;;;;1999.90;999.90;;;;;;;13.55;70.12;99247.38;8211976;28;20061;-77
2022/12/31 18:09:31;;;;;;;1999.90;999.90;;;;;;;13.59;69.41;99246.44;8212692;28;20098;-79
2022/12/31 18:13:32;;;;;;;1999.90;999.90;;;;;;;13.63;68.84;99238.53;8208104;28;20042;-78
2022/12/31 18:17:34;;;;;;;1999.90;999.90;;;;;;;13.63;69.42;99236.78;8221072;28;20058;-78
2022/12/31 18:21:35;;;;;;;1999.90;999.90;;;;;;;13.70;68.95;99227.13;8219098;28;20134;-78
2022/12/31 18:25:37;;;;;;;1999.90;999.90;;;;;;;13.67;69.36;99230.66;8218704;28;20085;-78
2022/12/31 18:29:37;;;;;;;1999.90;999.90;;;;;;;13.76;69.44;99225.22;8220114;28;20287;-77
2022/12/31 18:33:38;;;;;;;1999.90;999.90;;;;;;;13.77;69.39;99228.69;8223137;28;20057;-77
2022/12/31 18:37:40;;;;;;;1999.90;999.90;;;;;;;13.73;70.52;99233.13;8208991;28;20039;-77
2022/12/31 18:41:47;;;;;;;1999.90;999.90;;;;;;;13.67;71.04;99238.47;8224395;28;20074;-78
2022/12/31 18:45:50;;;;;;;1999.90;999.90;;;;;;;13.70;71.23;99238.41;8228146;28;20133;-77
2022/12/31 18:49:52;;;;;;;1999.90;999.90;;;;;;;13.67;71.51;99235.88;8219731;28;20049;-78
2022/12/31 18:53:53;;;;;;;1999.90;999.90;;;;;;;13.64;71.76;99243.72;8217722;28;20050;-78